sensor_id;sensor_type;location;lat;lon;timestamp;P1;durP1;ratioP1;P2;durP2;ratioP2
45007;SDS011;30743;52.008;5.644;2023-07-16T00:02:09;4.75;;;2.42;;
45007;SDS011;30743;52.008;5.644;2023-07-16T00:04:34;5.22;;;1.38;;
45007;SDS011;30743;52.008;5.644;2023-07-16T00:07:00;6.40;;;2.00;;
45007;SDS011;30743;52.008;5.644;2023-07-16T00:09:27;5.55;;;1.17;;
45007;SDS011;30743;52.008;5.644;2023-07-16T00:11:53;4.10;;;1.27;;
45007;SDS011;30743;52.008;5.644;2023-07-16T00:14:18;5.45;;;1.92;;
45007;SDS011;30743;52.008;5.644;2023-07-16T00:16:44;6.50;;;1.38;;
45007;SDS011;30743;52.008;5.644;2023-07-16T00:19:10;4.82;;;1.70;;
45007;SDS011;30743;52.008;5.644;2023-07-16T00:21:36;6.65;;;1.67;;
45007;SDS011;30743;52.008;5.644;2023-07-16T00:24:02;2.92;;;1.48;;
45007;SDS011;30743;52.008;5.644;2023-07-16T00:26:28;7.15;;;1.85;;
45007;SDS011;30743;52.008;5.644;2023-07-16T00:28:54;3.53;;;1.15;;
45007;SDS011;30743;52.008;5.644;2023-07-16T00:31:19;4.68;;;1.50;;
45007;SDS011;30743;52.008;5.644;2023-07-16T00:33:45;3.83;;;1.50;;
45007;SDS011;30743;52.008;5.644;2023-07-16T00:36:10;3.60;;;1.83;;
45007;SDS011;30743;52.008;5.644;2023-07-16T00:38:36;4.40;;;1.30;;
45007;SDS011;30743;52.008;5.644;2023-07-16T00:41:01;3.08;;;1.35;;
45007;SDS011;30743;52.008;5.644;2023-07-16T00:43:27;3.22;;;1.35;;
45007;SDS011;30743;52.008;5.644;2023-07-16T00:45:53;3.92;;;1.50;;
45007;SDS011;30743;52.008;5.644;2023-07-16T00:48:19;4.18;;;1.35;;
45007;SDS011;30743;52.008;5.644;2023-07-16T00:50:45;7.65;;;1.77;;
45007;SDS011;30743;52.008;5.644;2023-07-16T00:53:10;2.10;;;1.10;;
45007;SDS011;30743;52.008;5.644;2023-07-16T00:55:37;5.85;;;1.40;;
45007;SDS011;30743;52.008;5.644;2023-07-16T00:58:04;4.40;;;1.40;;
45007;SDS011;30743;52.008;5.644;2023-07-16T01:00:31;5.05;;;1.40;;
45007;SDS011;30743;52.008;5.644;2023-07-16T01:03:04;5.25;;;1.58;;
45007;SDS011;30743;52.008;5.644;2023-07-16T01:05:36;3.75;;;1.33;;
45007;SDS011;30743;52.008;5.644;2023-07-16T01:08:10;3.67;;;1.63;;
45007;SDS011;30743;52.008;5.644;2023-07-16T01:10:38;3.90;;;1.60;;
45007;SDS011;30743;52.008;5.644;2023-07-16T01:13:05;5.97;;;2.03;;
45007;SDS011;30743;52.008;5.644;2023-07-16T01:15:31;6.15;;;1.83;;
45007;SDS011;30743;52.008;5.644;2023-07-16T01:17:57;1.52;;;1.38;;
45007;SDS011;30743;52.008;5.644;2023-07-16T01:20:23;5.97;;;1.73;;
45007;SDS011;30743;52.008;5.644;2023-07-16T01:28:35;3.60;;;1.40;;
45007;SDS011;30743;52.008;5.644;2023-07-16T01:31:22;4.30;;;1.60;;
45007;SDS011;30743;52.008;5.644;2023-07-16T01:33:48;7.82;;;2.00;;
45007;SDS011;30743;52.008;5.644;2023-07-16T01:36:16;4.97;;;1.65;;
45007;SDS011;30743;52.008;5.644;2023-07-16T01:38:43;5.03;;;1.50;;
45007;SDS011;30743;52.008;5.644;2023-07-16T01:41:09;5.18;;;1.58;;
45007;SDS011;30743;52.008;5.644;2023-07-16T01:43:35;5.28;;;1.50;;
45007;SDS011;30743;52.008;5.644;2023-07-16T01:46:01;4.57;;;1.75;;
45007;SDS011;30743;52.008;5.644;2023-07-16T01:50:57;3.92;;;1.55;;
45007;SDS011;30743;52.008;5.644;2023-07-16T01:53:22;2.50;;;1.55;;
45007;SDS011;30743;52.008;5.644;2023-07-16T01:55:48;5.97;;;1.67;;
45007;SDS011;30743;52.008;5.644;2023-07-16T01:58:13;4.60;;;1.60;;
45007;SDS011;30743;52.008;5.644;2023-07-16T02:00:39;5.07;;;1.63;;
45007;SDS011;30743;52.008;5.644;2023-07-16T02:03:05;8.00;;;1.80;;
45007;SDS011;30743;52.008;5.644;2023-07-16T02:05:31;4.30;;;1.80;;
45007;SDS011;30743;52.008;5.644;2023-07-16T02:07:56;8.27;;;1.65;;
45007;SDS011;30743;52.008;5.644;2023-07-16T02:10:22;7.72;;;1.90;;
45007;SDS011;30743;52.008;5.644;2023-07-16T02:12:47;4.78;;;2.45;;
45007;SDS011;30743;52.008;5.644;2023-07-16T02:15:13;4.68;;;1.58;;
45007;SDS011;30743;52.008;5.644;2023-07-16T02:17:39;4.97;;;1.67;;
45007;SDS011;30743;52.008;5.644;2023-07-16T02:20:04;5.53;;;2.35;;
45007;SDS011;30743;52.008;5.644;2023-07-16T02:22:31;6.25;;;2.28;;
45007;SDS011;30743;52.008;5.644;2023-07-16T02:24:57;4.00;;;1.70;;
45007;SDS011;30743;52.008;5.644;2023-07-16T02:27:22;6.15;;;2.38;;
45007;SDS011;30743;52.008;5.644;2023-07-16T02:29:48;5.47;;;1.83;;
45007;SDS011;30743;52.008;5.644;2023-07-16T02:32:13;5.13;;;2.50;;
45007;SDS011;30743;52.008;5.644;2023-07-16T02:34:39;5.50;;;1.60;;
45007;SDS011;30743;52.008;5.644;2023-07-16T02:37:05;7.25;;;2.10;;
45007;SDS011;30743;52.008;5.644;2023-07-16T02:39:30;5.82;;;1.88;;
45007;SDS011;30743;52.008;5.644;2023-07-16T02:41:56;4.07;;;1.55;;
45007;SDS011;30743;52.008;5.644;2023-07-16T02:44:21;5.05;;;1.88;;
45007;SDS011;30743;52.008;5.644;2023-07-16T02:46:47;4.68;;;1.60;;
45007;SDS011;30743;52.008;5.644;2023-07-16T02:49:12;4.35;;;1.92;;
45007;SDS011;30743;52.008;5.644;2023-07-16T02:51:38;5.75;;;1.70;;
45007;SDS011;30743;52.008;5.644;2023-07-16T02:54:03;6.40;;;2.08;;
45007;SDS011;30743;52.008;5.644;2023-07-16T02:56:29;9.32;;;2.42;;
45007;SDS011;30743;52.008;5.644;2023-07-16T02:58:55;15.07;;;2.03;;
45007;SDS011;30743;52.008;5.644;2023-07-16T03:01:20;10.48;;;2.22;;
45007;SDS011;30743;52.008;5.644;2023-07-16T03:03:46;4.68;;;1.90;;
45007;SDS011;30743;52.008;5.644;2023-07-16T03:06:11;5.95;;;2.42;;
45007;SDS011;30743;52.008;5.644;2023-07-16T03:08:37;7.65;;;2.50;;
45007;SDS011;30743;52.008;5.644;2023-07-16T03:11:02;5.35;;;1.60;;
45007;SDS011;30743;52.008;5.644;2023-07-16T03:13:28;5.47;;;1.88;;
45007;SDS011;30743;52.008;5.644;2023-07-16T03:15:53;5.78;;;1.80;;
45007;SDS011;30743;52.008;5.644;2023-07-16T03:18:19;5.38;;;1.88;;
45007;SDS011;30743;52.008;5.644;2023-07-16T03:20:45;5.05;;;1.80;;
45007;SDS011;30743;52.008;5.644;2023-07-16T03:23:10;6.82;;;1.42;;
45007;SDS011;30743;52.008;5.644;2023-07-16T03:25:36;7.30;;;2.00;;
45007;SDS011;30743;52.008;5.644;2023-07-16T03:28:01;5.25;;;1.95;;
45007;SDS011;30743;52.008;5.644;2023-07-16T03:30:27;5.18;;;2.22;;
45007;SDS011;30743;52.008;5.644;2023-07-16T03:32:53;4.05;;;1.73;;
45007;SDS011;30743;52.008;5.644;2023-07-16T03:35:18;8.57;;;2.10;;
45007;SDS011;30743;52.008;5.644;2023-07-16T03:37:44;6.97;;;2.40;;
45007;SDS011;30743;52.008;5.644;2023-07-16T03:40:13;7.60;;;2.30;;
45007;SDS011;30743;52.008;5.644;2023-07-16T03:42:39;5.78;;;1.95;;
45007;SDS011;30743;52.008;5.644;2023-07-16T03:45:05;7.05;;;1.85;;
45007;SDS011;30743;52.008;5.644;2023-07-16T03:47:32;5.22;;;2.00;;
45007;SDS011;30743;52.008;5.644;2023-07-16T03:49:57;5.35;;;1.95;;
45007;SDS011;30743;52.008;5.644;2023-07-16T03:52:23;6.85;;;2.50;;
45007;SDS011;30743;52.008;5.644;2023-07-16T03:54:49;4.88;;;2.05;;
45007;SDS011;30743;52.008;5.644;2023-07-16T03:57:15;5.65;;;2.10;;
45007;SDS011;30743;52.008;5.644;2023-07-16T03:59:41;5.82;;;1.85;;
45007;SDS011;30743;52.008;5.644;2023-07-16T04:02:08;6.20;;;2.15;;
45007;SDS011;30743;52.008;5.644;2023-07-16T04:04:33;7.05;;;2.42;;
45007;SDS011;30743;52.008;5.644;2023-07-16T04:06:59;7.72;;;2.35;;
45007;SDS011;30743;52.008;5.644;2023-07-16T04:09:24;6.90;;;3.15;;
45007;SDS011;30743;52.008;5.644;2023-07-16T04:11:50;3.70;;;2.13;;
45007;SDS011;30743;52.008;5.644;2023-07-16T04:14:15;5.80;;;2.50;;
45007;SDS011;30743;52.008;5.644;2023-07-16T04:16:41;7.47;;;2.30;;
45007;SDS011;30743;52.008;5.644;2023-07-16T04:19:08;4.68;;;2.20;;
45007;SDS011;30743;52.008;5.644;2023-07-16T04:21:34;9.38;;;2.47;;
45007;SDS011;30743;52.008;5.644;2023-07-16T04:23:59;4.60;;;2.30;;
45007;SDS011;30743;52.008;5.644;2023-07-16T04:26:25;3.15;;;2.05;;
45007;SDS011;30743;52.008;5.644;2023-07-16T04:28:50;6.75;;;2.13;;
45007;SDS011;30743;52.008;5.644;2023-07-16T04:31:16;4.55;;;2.08;;
45007;SDS011;30743;52.008;5.644;2023-07-16T04:33:41;5.35;;;2.03;;
45007;SDS011;30743;52.008;5.644;2023-07-16T04:36:07;7.72;;;2.20;;
45007;SDS011;30743;52.008;5.644;2023-07-16T04:38:32;3.08;;;1.92;;
45007;SDS011;30743;52.008;5.644;2023-07-16T04:40:58;6.32;;;2.30;;
45007;SDS011;30743;52.008;5.644;2023-07-16T04:43:23;5.93;;;2.10;;
45007;SDS011;30743;52.008;5.644;2023-07-16T04:45:49;5.88;;;2.25;;
45007;SDS011;30743;52.008;5.644;2023-07-16T04:48:14;8.02;;;2.65;;
45007;SDS011;30743;52.008;5.644;2023-07-16T04:50:40;6.60;;;2.47;;
45007;SDS011;30743;52.008;5.644;2023-07-16T04:53:05;6.13;;;2.03;;
45007;SDS011;30743;52.008;5.644;2023-07-16T04:55:35;6.60;;;2.33;;
45007;SDS011;30743;52.008;5.644;2023-07-16T04:58:04;7.35;;;2.30;;
45007;SDS011;30743;52.008;5.644;2023-07-16T05:00:31;5.90;;;2.80;;
45007;SDS011;30743;52.008;5.644;2023-07-16T05:02:57;6.93;;;2.60;;
45007;SDS011;30743;52.008;5.644;2023-07-16T05:05:23;5.03;;;2.22;;
45007;SDS011;30743;52.008;5.644;2023-07-16T05:07:48;7.18;;;2.33;;
45007;SDS011;30743;52.008;5.644;2023-07-16T05:10:14;5.50;;;2.50;;
45007;SDS011;30743;52.008;5.644;2023-07-16T05:12:39;7.97;;;2.78;;
45007;SDS011;30743;52.008;5.644;2023-07-16T05:15:05;4.55;;;2.20;;
45007;SDS011;30743;52.008;5.644;2023-07-16T05:17:31;5.63;;;2.33;;
45007;SDS011;30743;52.008;5.644;2023-07-16T05:19:57;9.65;;;2.72;;
45007;SDS011;30743;52.008;5.644;2023-07-16T05:22:22;4.65;;;2.70;;
45007;SDS011;30743;52.008;5.644;2023-07-16T05:24:48;5.72;;;2.67;;
45007;SDS011;30743;52.008;5.644;2023-07-16T05:27:13;4.28;;;2.67;;
45007;SDS011;30743;52.008;5.644;2023-07-16T05:29:39;6.40;;;2.60;;
45007;SDS011;30743;52.008;5.644;2023-07-16T05:32:04;7.68;;;3.70;;
45007;SDS011;30743;52.008;5.644;2023-07-16T05:34:30;8.68;;;2.97;;
45007;SDS011;30743;52.008;5.644;2023-07-16T05:36:56;7.93;;;2.83;;
45007;SDS011;30743;52.008;5.644;2023-07-16T05:39:21;10.43;;;3.10;;
45007;SDS011;30743;52.008;5.644;2023-07-16T05:41:47;8.38;;;2.85;;
45007;SDS011;30743;52.008;5.644;2023-07-16T05:44:13;8.48;;;2.90;;
45007;SDS011;30743;52.008;5.644;2023-07-16T05:46:39;8.23;;;2.72;;
45007;SDS011;30743;52.008;5.644;2023-07-16T05:49:04;6.20;;;3.15;;
45007;SDS011;30743;52.008;5.644;2023-07-16T05:51:30;6.40;;;3.10;;
45007;SDS011;30743;52.008;5.644;2023-07-16T05:53:55;7.50;;;2.90;;
45007;SDS011;30743;52.008;5.644;2023-07-16T05:56:21;3.88;;;2.30;;
45007;SDS011;30743;52.008;5.644;2023-07-16T05:58:46;4.82;;;3.35;;
45007;SDS011;30743;52.008;5.644;2023-07-16T06:01:12;8.43;;;3.00;;
45007;SDS011;30743;52.008;5.644;2023-07-16T06:03:38;7.95;;;2.97;;
45007;SDS011;30743;52.008;5.644;2023-07-16T06:06:03;7.80;;;2.85;;
45007;SDS011;30743;52.008;5.644;2023-07-16T06:08:29;8.13;;;3.15;;
45007;SDS011;30743;52.008;5.644;2023-07-16T06:10:55;8.13;;;3.78;;
45007;SDS011;30743;52.008;5.644;2023-07-16T06:13:20;9.90;;;3.58;;
45007;SDS011;30743;52.008;5.644;2023-07-16T06:15:46;7.35;;;3.10;;
45007;SDS011;30743;52.008;5.644;2023-07-16T06:18:12;8.45;;;3.30;;
45007;SDS011;30743;52.008;5.644;2023-07-16T06:20:38;9.05;;;3.40;;
45007;SDS011;30743;52.008;5.644;2023-07-16T06:23:03;6.78;;;3.50;;
45007;SDS011;30743;52.008;5.644;2023-07-16T06:25:29;6.43;;;2.92;;
45007;SDS011;30743;52.008;5.644;2023-07-16T06:27:55;6.75;;;3.67;;
45007;SDS011;30743;52.008;5.644;2023-07-16T06:30:20;9.02;;;3.50;;
45007;SDS011;30743;52.008;5.644;2023-07-16T06:32:46;6.40;;;2.90;;
45007;SDS011;30743;52.008;5.644;2023-07-16T06:35:12;8.75;;;3.15;;
45007;SDS011;30743;52.008;5.644;2023-07-16T06:37:37;8.77;;;3.75;;
45007;SDS011;30743;52.008;5.644;2023-07-16T06:40:03;6.60;;;3.17;;
45007;SDS011;30743;52.008;5.644;2023-07-16T06:42:29;7.75;;;3.10;;
45007;SDS011;30743;52.008;5.644;2023-07-16T06:44:54;6.20;;;3.25;;
45007;SDS011;30743;52.008;5.644;2023-07-16T06:47:20;5.28;;;3.10;;
45007;SDS011;30743;52.008;5.644;2023-07-16T06:49:45;8.20;;;3.00;;
45007;SDS011;30743;52.008;5.644;2023-07-16T06:52:21;12.10;;;3.38;;
45007;SDS011;30743;52.008;5.644;2023-07-16T06:54:47;9.80;;;3.10;;
45007;SDS011;30743;52.008;5.644;2023-07-16T06:57:13;8.98;;;3.10;;
45007;SDS011;30743;52.008;5.644;2023-07-16T06:59:39;10.35;;;3.17;;
45007;SDS011;30743;52.008;5.644;2023-07-16T07:02:04;12.00;;;3.28;;
45007;SDS011;30743;52.008;5.644;2023-07-16T07:04:31;5.35;;;2.97;;
45007;SDS011;30743;52.008;5.644;2023-07-16T07:06:57;10.98;;;3.70;;
45007;SDS011;30743;52.008;5.644;2023-07-16T07:09:22;7.32;;;3.50;;
45007;SDS011;30743;52.008;5.644;2023-07-16T07:11:48;11.43;;;3.20;;
45007;SDS011;30743;52.008;5.644;2023-07-16T07:14:13;6.45;;;2.95;;
45007;SDS011;30743;52.008;5.644;2023-07-16T07:16:39;7.22;;;3.15;;
45007;SDS011;30743;52.008;5.644;2023-07-16T07:19:05;6.35;;;3.25;;
45007;SDS011;30743;52.008;5.644;2023-07-16T07:21:30;6.13;;;2.90;;
45007;SDS011;30743;52.008;5.644;2023-07-16T07:23:56;5.85;;;3.00;;
45007;SDS011;30743;52.008;5.644;2023-07-16T07:26:22;9.38;;;3.35;;
45007;SDS011;30743;52.008;5.644;2023-07-16T07:28:47;8.98;;;3.30;;
45007;SDS011;30743;52.008;5.644;2023-07-16T07:31:13;7.63;;;3.25;;
45007;SDS011;30743;52.008;5.644;2023-07-16T07:33:38;5.80;;;2.83;;
45007;SDS011;30743;52.008;5.644;2023-07-16T07:36:04;14.75;;;3.90;;
45007;SDS011;30743;52.008;5.644;2023-07-16T07:38:30;10.98;;;3.33;;
45007;SDS011;30743;52.008;5.644;2023-07-16T07:40:55;9.43;;;3.65;;
45007;SDS011;30743;52.008;5.644;2023-07-16T07:43:21;5.95;;;3.40;;
45007;SDS011;30743;52.008;5.644;2023-07-16T07:45:46;9.13;;;3.30;;
45007;SDS011;30743;52.008;5.644;2023-07-16T07:48:12;15.70;;;3.97;;
45007;SDS011;30743;52.008;5.644;2023-07-16T07:50:37;7.07;;;3.25;;
45007;SDS011;30743;52.008;5.644;2023-07-16T07:53:03;6.85;;;3.75;;
45007;SDS011;30743;52.008;5.644;2023-07-16T07:55:28;7.25;;;3.47;;
45007;SDS011;30743;52.008;5.644;2023-07-16T07:57:54;6.97;;;3.08;;
45007;SDS011;30743;52.008;5.644;2023-07-16T08:00:19;10.32;;;3.55;;
45007;SDS011;30743;52.008;5.644;2023-07-16T08:02:45;4.78;;;3.25;;
45007;SDS011;30743;52.008;5.644;2023-07-16T08:05:10;9.32;;;3.63;;
45007;SDS011;30743;52.008;5.644;2023-07-16T08:07:36;6.15;;;3.63;;
45007;SDS011;30743;52.008;5.644;2023-07-16T08:10:01;5.97;;;3.47;;
45007;SDS011;30743;52.008;5.644;2023-07-16T08:12:27;8.15;;;3.10;;
45007;SDS011;30743;52.008;5.644;2023-07-16T08:14:53;6.45;;;3.70;;
45007;SDS011;30743;52.008;5.644;2023-07-16T08:17:18;6.72;;;3.47;;
45007;SDS011;30743;52.008;5.644;2023-07-16T08:19:44;7.53;;;3.80;;
45007;SDS011;30743;52.008;5.644;2023-07-16T08:22:09;5.93;;;3.22;;
45007;SDS011;30743;52.008;5.644;2023-07-16T08:24:36;7.15;;;3.40;;
45007;SDS011;30743;52.008;5.644;2023-07-16T08:27:02;8.80;;;3.78;;
45007;SDS011;30743;52.008;5.644;2023-07-16T08:29:27;8.82;;;3.80;;
45007;SDS011;30743;52.008;5.644;2023-07-16T08:31:53;5.65;;;3.00;;
45007;SDS011;30743;52.008;5.644;2023-07-16T08:34:18;5.07;;;3.20;;
45007;SDS011;30743;52.008;5.644;2023-07-16T08:36:44;5.20;;;2.80;;
45007;SDS011;30743;52.008;5.644;2023-07-16T08:39:09;7.32;;;3.60;;
45007;SDS011;30743;52.008;5.644;2023-07-16T08:41:35;9.85;;;3.20;;
45007;SDS011;30743;52.008;5.644;2023-07-16T08:44:00;7.50;;;3.53;;
45007;SDS011;30743;52.008;5.644;2023-07-16T08:46:26;6.78;;;3.65;;
45007;SDS011;30743;52.008;5.644;2023-07-16T08:48:52;9.23;;;3.53;;
45007;SDS011;30743;52.008;5.644;2023-07-16T08:51:18;6.93;;;3.60;;
45007;SDS011;30743;52.008;5.644;2023-07-16T08:53:46;7.35;;;3.33;;
45007;SDS011;30743;52.008;5.644;2023-07-16T08:56:12;6.93;;;2.92;;
45007;SDS011;30743;52.008;5.644;2023-07-16T08:58:37;10.32;;;3.63;;
45007;SDS011;30743;52.008;5.644;2023-07-16T09:01:04;7.05;;;3.58;;
45007;SDS011;30743;52.008;5.644;2023-07-16T09:03:31;7.03;;;3.63;;
45007;SDS011;30743;52.008;5.644;2023-07-16T09:05:56;9.98;;;3.65;;
45007;SDS011;30743;52.008;5.644;2023-07-16T09:08:22;7.15;;;2.97;;
45007;SDS011;30743;52.008;5.644;2023-07-16T09:10:54;7.25;;;3.40;;
45007;SDS011;30743;52.008;5.644;2023-07-16T09:13:20;8.77;;;3.40;;
45007;SDS011;30743;52.008;5.644;2023-07-16T09:15:50;7.18;;;3.15;;
45007;SDS011;30743;52.008;5.644;2023-07-16T09:18:20;6.43;;;2.88;;
45007;SDS011;30743;52.008;5.644;2023-07-16T09:20:46;7.18;;;3.20;;
45007;SDS011;30743;52.008;5.644;2023-07-16T09:23:12;6.03;;;2.80;;
45007;SDS011;30743;52.008;5.644;2023-07-16T09:25:41;5.13;;;2.90;;
45007;SDS011;30743;52.008;5.644;2023-07-16T09:28:07;8.75;;;3.28;;
45007;SDS011;30743;52.008;5.644;2023-07-16T09:30:33;6.75;;;2.80;;
45007;SDS011;30743;52.008;5.644;2023-07-16T09:33:15;6.63;;;3.17;;
45007;SDS011;30743;52.008;5.644;2023-07-16T09:35:47;6.82;;;3.35;;
45007;SDS011;30743;52.008;5.644;2023-07-16T09:38:13;6.77;;;3.53;;
45007;SDS011;30743;52.008;5.644;2023-07-16T09:40:39;7.88;;;3.58;;
45007;SDS011;30743;52.008;5.644;2023-07-16T09:43:08;9.25;;;3.28;;
45007;SDS011;30743;52.008;5.644;2023-07-16T09:45:34;5.78;;;3.38;;
45007;SDS011;30743;52.008;5.644;2023-07-16T09:48:00;5.95;;;3.25;;
45007;SDS011;30743;52.008;5.644;2023-07-16T09:50:30;7.60;;;3.55;;
45007;SDS011;30743;52.008;5.644;2023-07-16T09:52:58;11.50;;;3.58;;
45007;SDS011;30743;52.008;5.644;2023-07-16T09:55:24;5.97;;;3.30;;
45007;SDS011;30743;52.008;5.644;2023-07-16T09:57:52;10.68;;;4.60;;
45007;SDS011;30743;52.008;5.644;2023-07-16T10:00:20;6.57;;;2.90;;
45007;SDS011;30743;52.008;5.644;2023-07-16T10:02:47;7.13;;;3.75;;
45007;SDS011;30743;52.008;5.644;2023-07-16T10:05:17;8.30;;;3.20;;
45007;SDS011;30743;52.008;5.644;2023-07-16T10:07:51;9.25;;;3.78;;
45007;SDS011;30743;52.008;5.644;2023-07-16T10:10:18;7.07;;;3.30;;
45007;SDS011;30743;52.008;5.644;2023-07-16T10:12:58;8.05;;;3.38;;
45007;SDS011;30743;52.008;5.644;2023-07-16T10:15:27;10.15;;;3.25;;
45007;SDS011;30743;52.008;5.644;2023-07-16T10:17:53;6.55;;;3.13;;
45007;SDS011;30743;52.008;5.644;2023-07-16T10:20:32;5.32;;;3.10;;
45007;SDS011;30743;52.008;5.644;2023-07-16T10:23:12;7.82;;;3.20;;
45007;SDS011;30743;52.008;5.644;2023-07-16T10:25:38;9.05;;;4.10;;
45007;SDS011;30743;52.008;5.644;2023-07-16T10:28:04;7.47;;;3.53;;
45007;SDS011;30743;52.008;5.644;2023-07-16T10:30:30;4.90;;;2.95;;
45007;SDS011;30743;52.008;5.644;2023-07-16T10:32:56;6.55;;;2.75;;
45007;SDS011;30743;52.008;5.644;2023-07-16T10:35:22;5.80;;;3.03;;
45007;SDS011;30743;52.008;5.644;2023-07-16T10:37:47;9.07;;;3.22;;
45007;SDS011;30743;52.008;5.644;2023-07-16T10:40:13;9.68;;;3.60;;
45007;SDS011;30743;52.008;5.644;2023-07-16T10:42:42;7.45;;;3.20;;
45007;SDS011;30743;52.008;5.644;2023-07-16T10:45:09;6.20;;;3.28;;
45007;SDS011;30743;52.008;5.644;2023-07-16T10:47:39;7.20;;;3.20;;
45007;SDS011;30743;52.008;5.644;2023-07-16T10:50:15;7.03;;;3.20;;
45007;SDS011;30743;52.008;5.644;2023-07-16T10:52:40;6.85;;;3.35;;
45007;SDS011;30743;52.008;5.644;2023-07-16T10:55:06;12.52;;;4.15;;
45007;SDS011;30743;52.008;5.644;2023-07-16T10:57:32;5.28;;;2.80;;
45007;SDS011;30743;52.008;5.644;2023-07-16T10:59:58;5.95;;;3.05;;
45007;SDS011;30743;52.008;5.644;2023-07-16T11:02:25;6.35;;;2.83;;
45007;SDS011;30743;52.008;5.644;2023-07-16T11:04:51;6.85;;;4.20;;
45007;SDS011;30743;52.008;5.644;2023-07-16T11:07:22;9.60;;;3.20;;
45007;SDS011;30743;52.008;5.644;2023-07-16T11:09:48;5.63;;;2.70;;
45007;SDS011;30743;52.008;5.644;2023-07-16T11:12:16;7.30;;;2.88;;
45007;SDS011;30743;52.008;5.644;2023-07-16T11:14:54;6.63;;;2.80;;
45007;SDS011;30743;52.008;5.644;2023-07-16T11:17:21;8.30;;;3.25;;
45007;SDS011;30743;52.008;5.644;2023-07-16T11:19:49;7.05;;;3.20;;
45007;SDS011;30743;52.008;5.644;2023-07-16T11:22:16;5.82;;;2.70;;
45007;SDS011;30743;52.008;5.644;2023-07-16T11:29:38;5.95;;;3.28;;
45007;SDS011;30743;52.008;5.644;2023-07-16T11:32:04;8.48;;;3.28;;
45007;SDS011;30743;52.008;5.644;2023-07-16T11:34:30;6.97;;;2.85;;
45007;SDS011;30743;52.008;5.644;2023-07-16T11:37:06;7.18;;;3.13;;
45007;SDS011;30743;52.008;5.644;2023-07-16T11:39:35;5.65;;;3.10;;
45007;SDS011;30743;52.008;5.644;2023-07-16T11:42:02;6.38;;;3.15;;
45007;SDS011;30743;52.008;5.644;2023-07-16T11:44:32;6.15;;;3.17;;
45007;SDS011;30743;52.008;5.644;2023-07-16T11:46:59;7.53;;;3.20;;
45007;SDS011;30743;52.008;5.644;2023-07-16T11:49:25;11.65;;;3.97;;
45007;SDS011;30743;52.008;5.644;2023-07-16T11:51:50;4.82;;;2.85;;
45007;SDS011;30743;52.008;5.644;2023-07-16T11:54:16;6.82;;;3.42;;
45007;SDS011;30743;52.008;5.644;2023-07-16T11:56:41;6.18;;;3.13;;
45007;SDS011;30743;52.008;5.644;2023-07-16T11:59:07;8.57;;;2.85;;
45007;SDS011;30743;52.008;5.644;2023-07-16T12:01:32;6.10;;;2.80;;
45007;SDS011;30743;52.008;5.644;2023-07-16T12:03:58;9.57;;;3.13;;
45007;SDS011;30743;52.008;5.644;2023-07-16T12:06:23;10.13;;;2.95;;
45007;SDS011;30743;52.008;5.644;2023-07-16T12:08:49;4.88;;;2.60;;
45007;SDS011;30743;52.008;5.644;2023-07-16T12:11:14;5.78;;;2.83;;
45007;SDS011;30743;52.008;5.644;2023-07-16T12:13:40;5.88;;;2.83;;
45007;SDS011;30743;52.008;5.644;2023-07-16T12:16:05;5.70;;;3.50;;
45007;SDS011;30743;52.008;5.644;2023-07-16T12:18:31;9.25;;;3.15;;
45007;SDS011;30743;52.008;5.644;2023-07-16T12:20:57;5.18;;;2.85;;
45007;SDS011;30743;52.008;5.644;2023-07-16T12:23:22;10.10;;;3.20;;
45007;SDS011;30743;52.008;5.644;2023-07-16T12:25:48;6.82;;;3.20;;
45007;SDS011;30743;52.008;5.644;2023-07-16T12:28:15;9.23;;;3.28;;
45007;SDS011;30743;52.008;5.644;2023-07-16T12:30:40;8.63;;;3.50;;
45007;SDS011;30743;52.008;5.644;2023-07-16T12:33:06;6.85;;;3.05;;
45007;SDS011;30743;52.008;5.644;2023-07-16T12:35:31;7.15;;;3.30;;
45007;SDS011;30743;52.008;5.644;2023-07-16T12:37:57;7.45;;;3.22;;
45007;SDS011;30743;52.008;5.644;2023-07-16T12:40:23;4.93;;;3.08;;
45007;SDS011;30743;52.008;5.644;2023-07-16T12:42:49;5.90;;;3.00;;
45007;SDS011;30743;52.008;5.644;2023-07-16T12:45:15;6.88;;;3.15;;
45007;SDS011;30743;52.008;5.644;2023-07-16T12:47:40;4.78;;;3.08;;
45007;SDS011;30743;52.008;5.644;2023-07-16T12:50:07;5.68;;;2.88;;
45007;SDS011;30743;52.008;5.644;2023-07-16T12:52:33;4.00;;;2.47;;
45007;SDS011;30743;52.008;5.644;2023-07-16T12:54:58;5.10;;;2.75;;
45007;SDS011;30743;52.008;5.644;2023-07-16T12:57:24;5.82;;;2.70;;
45007;SDS011;30743;52.008;5.644;2023-07-16T12:59:49;5.68;;;2.83;;
45007;SDS011;30743;52.008;5.644;2023-07-16T13:02:15;5.60;;;2.85;;
45007;SDS011;30743;52.008;5.644;2023-07-16T13:04:40;5.60;;;2.50;;
45007;SDS011;30743;52.008;5.644;2023-07-16T13:07:06;3.50;;;2.35;;
45007;SDS011;30743;52.008;5.644;2023-07-16T13:09:32;5.05;;;2.65;;
45007;SDS011;30743;52.008;5.644;2023-07-16T13:11:57;3.42;;;2.28;;
45007;SDS011;30743;52.008;5.644;2023-07-16T13:14:23;7.18;;;2.60;;
45007;SDS011;30743;52.008;5.644;2023-07-16T13:16:48;6.50;;;2.63;;
45007;SDS011;30743;52.008;5.644;2023-07-16T13:19:14;4.93;;;2.67;;
45007;SDS011;30743;52.008;5.644;2023-07-16T13:21:39;5.55;;;3.08;;
45007;SDS011;30743;52.008;5.644;2023-07-16T13:24:05;8.13;;;2.85;;
45007;SDS011;30743;52.008;5.644;2023-07-16T13:26:30;6.28;;;3.28;;
45007;SDS011;30743;52.008;5.644;2023-07-16T13:28:56;3.92;;;2.72;;
45007;SDS011;30743;52.008;5.644;2023-07-16T13:31:22;6.63;;;2.92;;
45007;SDS011;30743;52.008;5.644;2023-07-16T13:33:47;7.25;;;2.90;;
45007;SDS011;30743;52.008;5.644;2023-07-16T13:36:13;8.25;;;2.55;;
45007;SDS011;30743;52.008;5.644;2023-07-16T13:38:38;4.40;;;1.98;;
45007;SDS011;30743;52.008;5.644;2023-07-16T13:41:04;3.15;;;1.83;;
45007;SDS011;30743;52.008;5.644;2023-07-16T13:43:29;4.07;;;1.83;;
45007;SDS011;30743;52.008;5.644;2023-07-16T13:45:55;3.88;;;1.90;;
45007;SDS011;30743;52.008;5.644;2023-07-16T13:48:20;4.60;;;2.20;;
45007;SDS011;30743;52.008;5.644;2023-07-16T13:50:46;3.63;;;1.95;;
45007;SDS011;30743;52.008;5.644;2023-07-16T13:53:12;4.55;;;1.77;;
45007;SDS011;30743;52.008;5.644;2023-07-16T13:55:37;3.72;;;1.85;;
45007;SDS011;30743;52.008;5.644;2023-07-16T13:58:03;5.20;;;2.35;;
45007;SDS011;30743;52.008;5.644;2023-07-16T14:00:28;2.95;;;1.67;;
45007;SDS011;30743;52.008;5.644;2023-07-16T14:02:54;3.53;;;1.45;;
45007;SDS011;30743;52.008;5.644;2023-07-16T14:05:19;3.33;;;1.45;;
45007;SDS011;30743;52.008;5.644;2023-07-16T14:07:45;3.17;;;1.90;;
45007;SDS011;30743;52.008;5.644;2023-07-16T14:10:11;4.07;;;1.60;;
45007;SDS011;30743;52.008;5.644;2023-07-16T14:12:37;3.70;;;1.30;;
45007;SDS011;30743;52.008;5.644;2023-07-16T14:15:03;5.78;;;1.70;;
45007;SDS011;30743;52.008;5.644;2023-07-16T14:17:29;4.30;;;1.60;;
45007;SDS011;30743;52.008;5.644;2023-07-16T14:19:54;3.10;;;1.42;;
45007;SDS011;30743;52.008;5.644;2023-07-16T14:22:20;4.28;;;1.40;;
45007;SDS011;30743;52.008;5.644;2023-07-16T14:27:16;2.70;;;1.33;;
45007;SDS011;30743;52.008;5.644;2023-07-16T14:29:44;3.47;;;1.37;;
45007;SDS011;30743;52.008;5.644;2023-07-16T14:32:09;3.83;;;1.30;;
45007;SDS011;30743;52.008;5.644;2023-07-16T14:34:35;7.05;;;1.40;;
45007;SDS011;30743;52.008;5.644;2023-07-16T14:37:01;3.08;;;1.15;;
45007;SDS011;30743;52.008;5.644;2023-07-16T14:39:27;2.97;;;1.15;;
45007;SDS011;30743;52.008;5.644;2023-07-16T14:41:52;3.35;;;1.10;;
45007;SDS011;30743;52.008;5.644;2023-07-16T14:44:19;4.65;;;1.40;;
45007;SDS011;30743;52.008;5.644;2023-07-16T14:46:45;3.42;;;1.50;;
45007;SDS011;30743;52.008;5.644;2023-07-16T14:49:10;9.15;;;1.63;;
45007;SDS011;30743;52.008;5.644;2023-07-16T14:51:36;5.63;;;1.50;;
45007;SDS011;30743;52.008;5.644;2023-07-16T14:54:05;7.55;;;1.70;;
45007;SDS011;30743;52.008;5.644;2023-07-16T14:56:32;3.47;;;1.10;;
45007;SDS011;30743;52.008;5.644;2023-07-16T14:58:57;5.53;;;1.17;;